createdAt,value
2024-05-09T00:00:56.112Z,9.38
2024-05-09T00:03:28.612Z,7.70
2024-05-09T00:06:01.165Z,12.90
2024-05-09T00:08:34.092Z,8.40
2024-05-09T00:11:06.769Z,11.70
2024-05-09T00:13:39.286Z,9.15
2024-05-09T00:16:11.696Z,11.30
2024-05-09T00:18:44.150Z,12.13
2024-05-09T00:21:16.657Z,8.15
2024-05-09T00:23:49.109Z,9.38
2024-05-09T00:26:21.599Z,10.05
2024-05-09T00:28:54.105Z,10.48
2024-05-09T00:31:26.875Z,8.70
2024-05-09T00:33:59.523Z,10.75
2024-05-09T00:36:32.034Z,13.60
2024-05-09T00:39:04.669Z,10.05
2024-05-09T00:41:37.144Z,12.80
2024-05-09T00:44:09.714Z,9.32
2024-05-09T00:46:42.208Z,14.20
2024-05-09T00:49:15.014Z,9.70
2024-05-09T00:51:47.627Z,9.70
2024-05-09T00:54:21.423Z,10.30
2024-05-09T00:56:54.134Z,11.27
2024-05-09T01:02:02.339Z,11.20
2024-05-09T01:04:34.833Z,9.15
2024-05-09T01:07:07.943Z,14.35
2024-05-09T01:09:40.472Z,12.60
2024-05-09T01:12:13.124Z,9.68
2024-05-09T01:14:45.945Z,9.88
2024-05-09T01:17:18.651Z,12.15
2024-05-09T01:19:51.224Z,9.10
2024-05-09T01:22:26.077Z,9.60
2024-05-09T01:24:58.429Z,9.98
2024-05-09T01:27:31.726Z,11.50
2024-05-09T01:30:06.952Z,8.85
2024-05-09T01:32:41.773Z,10.48
2024-05-09T01:35:14.346Z,13.30
2024-05-09T01:37:47.220Z,10.30
2024-05-09T01:40:25.351Z,10.00
2024-05-09T01:43:06.631Z,13.38
2024-05-09T01:45:42.761Z,9.90
2024-05-09T01:48:15.353Z,9.05
2024-05-09T01:50:47.875Z,11.45
2024-05-09T01:53:22.879Z,10.15
2024-05-09T01:55:55.400Z,9.13
2024-05-09T01:58:28.471Z,13.25
2024-05-09T02:01:00.888Z,13.65
2024-05-09T02:03:33.461Z,11.95
2024-05-09T02:06:06.413Z,12.98
2024-05-09T02:08:39.596Z,12.43
2024-05-09T02:11:12.460Z,11.35
2024-05-09T02:13:45.078Z,10.98
2024-05-09T02:16:17.527Z,12.57
2024-05-09T02:18:50.061Z,11.20
2024-05-09T02:21:22.531Z,11.50
2024-05-09T02:23:54.958Z,18.25
2024-05-09T02:26:27.414Z,10.60
2024-05-09T02:29:00.292Z,11.60
2024-05-09T02:31:32.700Z,10.75
2024-05-09T02:34:09.182Z,9.27
2024-05-09T02:36:41.662Z,11.80
2024-05-09T02:39:14.044Z,15.40
2024-05-09T02:41:47.509Z,13.40
2024-05-09T02:44:19.974Z,11.48
2024-05-09T02:46:52.443Z,10.27
2024-05-09T02:49:25.334Z,11.98
2024-05-09T02:51:57.777Z,12.85
2024-05-09T02:54:30.189Z,15.20
2024-05-09T02:57:04.627Z,13.18
2024-05-09T02:59:38.197Z,18.17
2024-05-09T03:02:10.718Z,31.67
2024-05-09T03:04:43.521Z,28.35
2024-05-09T03:07:17.228Z,31.90
2024-05-09T03:09:50.780Z,38.72
2024-05-09T03:12:23.293Z,42.22
2024-05-09T03:14:58.509Z,46.35
2024-05-09T03:17:33.903Z,41.30
2024-05-09T03:20:14.524Z,30.63
2024-05-09T03:22:50.154Z,32.78
2024-05-09T03:25:23.160Z,32.70
2024-05-09T03:27:55.873Z,33.22
2024-05-09T03:30:39.037Z,32.50
2024-05-09T03:33:17.915Z,28.63
2024-05-09T03:35:51.951Z,31.48
2024-05-09T03:38:24.401Z,32.25
2024-05-09T03:40:56.823Z,30.48
2024-05-09T03:43:29.214Z,20.70
2024-05-09T03:46:01.689Z,23.42
2024-05-09T03:48:37.304Z,23.33
2024-05-09T03:51:09.974Z,21.45
2024-05-09T03:53:42.727Z,17.98
2024-05-09T03:56:17.909Z,19.13
2024-05-09T03:58:50.346Z,17.40
2024-05-09T04:01:23.061Z,16.88
2024-05-09T04:03:58.401Z,17.45
2024-05-09T04:06:30.848Z,16.85
2024-05-09T04:09:03.901Z,16.95
2024-05-09T04:11:36.474Z,15.52
2024-05-09T04:14:08.920Z,15.40
2024-05-09T04:16:41.359Z,13.48
2024-05-09T04:19:13.768Z,12.25
2024-05-09T04:21:46.215Z,12.48
2024-05-09T04:24:18.615Z,12.07
2024-05-09T04:26:50.984Z,11.05
2024-05-09T04:29:23.423Z,13.38
2024-05-09T04:31:55.976Z,11.05
2024-05-09T04:34:28.524Z,10.57
2024-05-09T04:37:02.974Z,10.53
2024-05-09T04:39:35.505Z,13.60
2024-05-09T04:42:07.910Z,9.80
2024-05-09T04:44:42.874Z,11.75
2024-05-09T04:47:16.726Z,12.63
2024-05-09T04:49:49.173Z,12.38
2024-05-09T04:52:21.593Z,12.77
2024-05-09T04:54:58.501Z,11.52
2024-05-09T04:57:31.314Z,10.77
2024-05-09T05:00:09.342Z,11.02
2024-05-09T05:02:46.554Z,11.10
2024-05-09T05:05:19.081Z,10.15
2024-05-09T05:07:53.152Z,12.13
2024-05-09T05:10:33.823Z,13.80
2024-05-09T05:13:19.434Z,12.55
2024-05-09T05:15:58.354Z,14.65
2024-05-09T05:18:31.378Z,13.25
2024-05-09T05:21:03.902Z,13.48
2024-05-09T05:23:36.498Z,12.95
2024-05-09T05:26:09.033Z,12.88
2024-05-09T05:28:41.484Z,13.43
2024-05-09T05:31:15.769Z,13.43
2024-05-09T05:33:49.379Z,10.43
2024-05-09T05:36:24.087Z,16.73
2024-05-09T05:38:56.510Z,13.25
2024-05-09T05:41:29.059Z,14.02
2024-05-09T05:44:01.889Z,10.55
2024-05-09T05:46:34.317Z,14.18
2024-05-09T05:49:06.983Z,9.50
2024-05-09T05:51:39.418Z,12.45
2024-05-09T05:54:11.812Z,11.95
2024-05-09T05:56:44.278Z,12.35
2024-05-09T05:59:19.727Z,15.27
2024-05-09T06:01:52.073Z,14.43
2024-05-09T06:04:24.571Z,14.48
2024-05-09T06:06:57.020Z,10.18
2024-05-09T06:09:29.450Z,12.25
2024-05-09T06:12:02.352Z,13.32
2024-05-09T06:14:34.942Z,11.98
2024-05-09T06:17:07.558Z,12.10
2024-05-09T06:19:43.239Z,11.15
2024-05-09T06:22:16.714Z,11.95
2024-05-09T06:24:51.675Z,11.80
2024-05-09T06:27:24.127Z,11.23
2024-05-09T06:29:56.614Z,10.63
2024-05-09T06:32:29.653Z,14.32
2024-05-09T06:35:02.144Z,11.73
2024-05-09T06:37:34.586Z,17.10
2024-05-09T06:40:10.137Z,11.13
2024-05-09T06:42:42.644Z,10.82
2024-05-09T06:45:15.884Z,13.05
2024-05-09T06:47:48.498Z,9.68
2024-05-09T06:50:24.230Z,9.10
2024-05-09T06:53:00.459Z,10.45
2024-05-09T06:55:32.920Z,11.35
2024-05-09T06:58:12.055Z,11.25
2024-05-09T07:00:44.500Z,11.27
2024-05-09T07:03:18.560Z,13.50
2024-05-09T07:05:51.970Z,13.10
2024-05-09T07:08:24.444Z,14.63
2024-05-09T07:10:56.929Z,12.73
2024-05-09T07:13:30.776Z,15.48
2024-05-09T07:16:03.244Z,13.27
2024-05-09T07:18:36.075Z,14.80
2024-05-09T07:21:09.350Z,10.57
2024-05-09T07:23:47.530Z,15.88
2024-05-09T07:26:20.172Z,11.73
2024-05-09T07:28:52.628Z,12.30
2024-05-09T07:31:28.194Z,14.88
2024-05-09T07:34:01.426Z,16.10
2024-05-09T07:36:36.640Z,11.73
2024-05-09T07:39:12.864Z,12.95
2024-05-09T07:41:45.356Z,9.50
2024-05-09T07:44:17.947Z,11.70
2024-05-09T07:47:52.290Z,10.40
2024-05-09T07:51:32.038Z,10.57
2024-05-09T07:53:34.205Z,8.70
2024-05-09T07:55:33.526Z,10.32
2024-05-09T07:58:06.299Z,10.40
2024-05-09T08:00:39.171Z,10.35
2024-05-09T08:03:11.724Z,8.50
2024-05-09T08:05:44.166Z,10.57
2024-05-09T08:08:16.968Z,14.07
2024-05-09T08:10:51.333Z,8.23
2024-05-09T08:13:23.815Z,10.27
2024-05-09T08:15:56.280Z,10.65
2024-05-09T08:18:29.095Z,8.95
2024-05-09T08:21:01.823Z,9.43
2024-05-09T08:23:38.302Z,9.13
2024-05-09T08:26:10.685Z,7.22
2024-05-09T08:28:44.463Z,9.35
2024-05-09T08:31:19.043Z,10.25
2024-05-09T08:33:56.595Z,6.43
2024-05-09T08:36:29.174Z,8.35
2024-05-09T08:39:02.719Z,6.82
2024-05-09T08:41:39.991Z,8.52
2024-05-09T08:44:12.477Z,7.93
2024-05-09T08:47:00.584Z,7.13
2024-05-09T08:49:33.943Z,8.50
2024-05-09T08:52:06.951Z,7.47
2024-05-09T08:54:39.397Z,6.38
2024-05-09T08:57:13.738Z,9.10
2024-05-09T08:59:50.999Z,8.88
2024-05-09T09:02:29.143Z,16.00
2024-05-09T09:05:12.333Z,9.45
2024-05-09T09:07:48.488Z,9.07
2024-05-09T09:10:29.575Z,12.75
2024-05-09T09:13:07.338Z,10.15
2024-05-09T09:15:50.441Z,5.43
2024-05-09T09:18:28.107Z,15.65
2024-05-09T09:21:00.931Z,4.68
2024-05-09T09:23:36.599Z,8.45
2024-05-09T09:26:09.013Z,6.75
2024-05-09T09:28:41.403Z,6.20
2024-05-09T09:31:19.019Z,7.20
2024-05-09T09:33:53.745Z,8.32
2024-05-09T09:36:28.146Z,5.07
2024-05-09T09:39:04.006Z,6.93
2024-05-09T09:41:38.632Z,9.02
2024-05-09T09:44:11.170Z,6.85
2024-05-09T09:46:48.323Z,7.50
2024-05-09T09:49:20.913Z,10.02
2024-05-09T09:51:53.818Z,6.82
2024-05-09T09:54:29.107Z,5.95
2024-05-09T09:57:01.931Z,7.38
2024-05-09T09:59:36.252Z,6.53
2024-05-09T10:04:41.400Z,11.43
2024-05-09T10:07:15.125Z,5.63
2024-05-09T10:09:47.700Z,6.72
2024-05-09T10:12:24.310Z,4.53
2024-05-09T10:14:56.773Z,10.85
2024-05-09T10:17:29.255Z,5.18
2024-05-09T10:20:14.435Z,10.00
2024-05-09T10:22:53.563Z,5.22
2024-05-09T10:25:26.056Z,9.65
2024-05-09T10:27:58.929Z,12.82
2024-05-09T10:30:35.953Z,14.27
2024-05-09T10:33:11.817Z,8.18
2024-05-09T10:35:52.290Z,8.73
2024-05-09T10:38:26.941Z,10.63
2024-05-09T10:41:00.719Z,11.57
2024-05-09T10:43:36.490Z,13.82
2024-05-09T10:46:11.189Z,10.85
2024-05-09T10:48:46.961Z,5.05
2024-05-09T10:51:21.185Z,8.68
2024-05-09T10:53:53.590Z,7.95
2024-05-09T10:56:27.021Z,6.82
2024-05-09T10:58:59.405Z,6.88
2024-05-09T11:01:32.533Z,6.60
2024-05-09T11:04:06.128Z,12.45
2024-05-09T11:06:39.267Z,7.82
2024-05-09T11:09:12.561Z,9.18
2024-05-09T11:11:48.861Z,5.60
2024-05-09T11:14:21.308Z,7.22
2024-05-09T11:17:07.195Z,5.95
2024-05-09T11:19:40.795Z,8.68
2024-05-09T11:22:14.675Z,3.97
2024-05-09T11:24:47.130Z,4.35
2024-05-09T11:27:24.057Z,6.93
2024-05-09T11:29:57.918Z,5.72
2024-05-09T11:32:34.118Z,14.57
2024-05-09T11:35:06.914Z,9.88
2024-05-09T11:37:41.176Z,8.90
2024-05-09T11:40:21.228Z,7.47
2024-05-09T11:42:57.818Z,7.97
2024-05-09T11:45:31.288Z,7.78
2024-05-09T11:48:04.567Z,6.18
2024-05-09T11:50:37.055Z,8.13
2024-05-09T11:53:12.863Z,7.63
2024-05-09T11:55:45.269Z,5.63
2024-05-09T11:58:18.886Z,6.38
2024-05-09T12:00:51.974Z,4.93
2024-05-09T12:03:24.493Z,6.65
2024-05-09T12:05:57.373Z,5.10
2024-05-09T12:08:33.919Z,4.18
2024-05-09T12:11:06.843Z,4.93
2024-05-09T12:13:42.682Z,6.68
2024-05-09T12:16:16.987Z,5.15
2024-05-09T12:18:49.613Z,9.52
2024-05-09T12:21:22.175Z,8.23
2024-05-09T12:23:54.559Z,5.65
2024-05-09T12:26:27.782Z,6.07
2024-05-09T12:29:00.237Z,5.63
2024-05-09T12:31:32.784Z,6.63
2024-05-09T12:34:05.387Z,7.05
2024-05-09T12:36:37.917Z,5.38
2024-05-09T12:39:10.393Z,7.10
2024-05-09T12:41:42.807Z,4.15
2024-05-09T12:44:15.313Z,7.40
2024-05-09T12:46:50.578Z,5.00
2024-05-09T12:49:24.604Z,9.48
2024-05-09T12:51:58.166Z,4.88
2024-05-09T12:54:33.567Z,6.35
2024-05-09T12:57:06.159Z,4.85
2024-05-09T12:59:38.699Z,5.45
2024-05-09T13:02:11.834Z,5.38
2024-05-09T13:04:44.560Z,6.60
2024-05-09T13:07:19.917Z,6.95
2024-05-09T13:09:52.427Z,7.85
2024-05-09T13:12:27.657Z,5.32
2024-05-09T13:15:00.542Z,5.63
2024-05-09T13:17:36.981Z,5.35
2024-05-09T13:20:18.512Z,7.47
2024-05-09T13:22:55.383Z,5.50
2024-05-09T13:25:30.820Z,7.18
2024-05-09T13:28:04.882Z,6.55
2024-05-09T13:30:40.735Z,12.48
2024-05-09T13:33:15.836Z,5.05
2024-05-09T13:35:50.645Z,6.60
2024-05-09T13:38:23.620Z,4.80
2024-05-09T13:40:58.828Z,5.97
2024-05-09T13:43:33.265Z,7.10
2024-05-09T13:46:05.821Z,7.40
2024-05-09T13:48:38.401Z,7.45
2024-05-09T13:51:10.919Z,5.68
2024-05-09T13:53:43.854Z,5.63
2024-05-09T13:56:16.290Z,8.23
2024-05-09T13:58:51.224Z,9.07
2024-05-09T14:01:23.740Z,5.47
2024-05-09T14:03:56.424Z,5.68
2024-05-09T14:06:28.984Z,4.80
2024-05-09T14:09:01.427Z,5.70
2024-05-09T14:11:33.875Z,7.75
2024-05-09T14:14:06.308Z,6.45
2024-05-09T14:16:39.912Z,6.13
2024-05-09T14:19:12.631Z,5.88
2024-05-09T14:21:51.076Z,8.38
2024-05-09T14:24:23.435Z,7.30
2024-05-09T14:26:55.894Z,6.82
2024-05-09T14:29:28.481Z,5.88
2024-05-09T14:32:00.933Z,6.10
2024-05-09T14:34:36.884Z,10.73
2024-05-09T14:37:09.531Z,5.93
2024-05-09T14:39:41.983Z,8.38
2024-05-09T14:42:15.304Z,6.28
2024-05-09T14:44:47.682Z,5.40
2024-05-09T14:47:23.346Z,5.75
2024-05-09T14:49:55.868Z,5.78
2024-05-09T14:52:31.275Z,6.13
2024-05-09T14:55:03.774Z,7.38
2024-05-09T14:57:36.763Z,6.95
2024-05-09T15:00:17.438Z,6.30
2024-05-09T15:02:57.919Z,11.00
2024-05-09T15:05:30.633Z,7.20
2024-05-09T15:08:09.584Z,4.95
2024-05-09T15:10:42.064Z,5.20
2024-05-09T15:13:16.550Z,4.68
2024-05-09T15:15:49.680Z,5.90
2024-05-09T15:18:25.414Z,7.90
2024-05-09T15:20:59.090Z,8.00
2024-05-09T15:23:31.510Z,9.40
2024-05-09T15:26:04.764Z,8.32
2024-05-09T15:28:37.256Z,6.43
2024-05-09T15:31:11.132Z,5.68
2024-05-09T15:33:46.670Z,7.15
2024-05-09T15:36:20.030Z,6.22
2024-05-09T15:38:52.725Z,5.55
2024-05-09T15:41:25.188Z,15.35
2024-05-09T15:43:58.625Z,10.32
2024-05-09T15:46:31.137Z,6.07
2024-05-09T15:49:06.034Z,6.90
2024-05-09T15:51:38.628Z,7.43
2024-05-09T15:54:11.728Z,4.53
2024-05-09T15:56:48.903Z,5.70
2024-05-09T15:59:24.320Z,4.75
2024-05-09T16:01:57.210Z,7.25
2024-05-09T16:04:29.754Z,6.35
2024-05-09T16:07:03.416Z,6.50
2024-05-09T16:09:36.111Z,6.05
2024-05-09T16:12:08.559Z,5.72
2024-05-09T16:14:40.973Z,7.03
2024-05-09T16:17:14.571Z,7.38
2024-05-09T16:19:47.056Z,6.40
2024-05-09T16:22:19.490Z,8.27
2024-05-09T16:24:53.146Z,9.20
2024-05-09T16:27:26.461Z,8.15
2024-05-09T16:30:04.124Z,6.07
2024-05-09T16:32:46.845Z,8.63
2024-05-09T16:35:19.384Z,7.03
2024-05-09T16:37:51.823Z,6.60
2024-05-09T16:40:34.195Z,5.40
2024-05-09T16:43:14.195Z,4.72
2024-05-09T16:45:46.724Z,4.72
2024-05-09T16:48:19.760Z,3.75
2024-05-09T16:50:53.676Z,6.53
2024-05-09T16:53:26.440Z,5.82
2024-05-09T16:55:59.088Z,5.20
2024-05-09T16:58:31.703Z,4.13
2024-05-09T17:01:04.412Z,5.65
2024-05-09T17:03:37.200Z,4.90
2024-05-09T17:06:12.881Z,4.07
2024-05-09T17:08:45.329Z,6.43
2024-05-09T17:11:17.852Z,5.68
2024-05-09T17:13:50.433Z,5.28
2024-05-09T17:16:23.033Z,4.30
2024-05-09T17:18:55.551Z,3.72
2024-05-09T17:21:27.932Z,3.92
2024-05-09T17:24:00.428Z,5.15
2024-05-09T17:26:35.793Z,5.57
2024-05-09T17:29:12.316Z,5.60
2024-05-09T17:31:44.994Z,5.13
2024-05-09T17:34:17.638Z,8.75
2024-05-09T17:36:50.495Z,5.70
2024-05-09T17:39:22.959Z,6.93
2024-05-09T17:41:55.664Z,6.22
2024-05-09T17:44:28.285Z,5.05
2024-05-09T17:47:00.972Z,6.13
2024-05-09T17:49:33.515Z,5.95
2024-05-09T17:52:06.613Z,5.43
2024-05-09T17:54:39.089Z,4.28
2024-05-09T17:57:11.518Z,5.05
2024-05-09T17:59:44.007Z,4.97
2024-05-09T18:02:19.304Z,6.90
2024-05-09T18:04:51.975Z,4.53
2024-05-09T18:07:24.541Z,6.05
2024-05-09T18:09:57.487Z,4.82
2024-05-09T18:12:30.044Z,7.35
2024-05-09T18:15:02.727Z,4.47
2024-05-09T18:17:35.554Z,6.00
2024-05-09T18:20:11.295Z,8.05
2024-05-09T18:22:46.229Z,6.43
2024-05-09T18:25:18.686Z,4.20
2024-05-09T18:27:51.166Z,6.07
2024-05-09T18:30:28.313Z,6.45
2024-05-09T18:33:13.509Z,6.20
2024-05-09T18:35:46.216Z,6.25
2024-05-09T18:38:25.514Z,3.97
2024-05-09T18:40:58.487Z,5.97
2024-05-09T18:43:38.225Z,5.90
2024-05-09T18:46:20.073Z,4.80
2024-05-09T18:48:53.291Z,5.95
2024-05-09T18:51:25.839Z,3.67
2024-05-09T18:53:59.255Z,5.90
2024-05-09T18:56:31.683Z,8.57
2024-05-09T18:59:04.132Z,6.93
2024-05-09T19:01:41.073Z,5.80
2024-05-09T19:04:13.857Z,5.30
2024-05-09T19:06:47.170Z,5.40
2024-05-09T19:09:19.607Z,5.00
2024-05-09T19:11:52.101Z,6.25
2024-05-09T19:14:27.328Z,5.18
2024-05-09T19:16:59.953Z,5.60
2024-05-09T19:19:32.531Z,6.97
2024-05-09T19:22:07.813Z,7.05
2024-05-09T19:24:41.345Z,5.90
2024-05-09T19:27:14.909Z,6.95
2024-05-09T19:29:47.377Z,7.23
2024-05-09T19:32:28.084Z,6.82
2024-05-09T19:35:02.521Z,5.63
2024-05-09T19:37:35.226Z,7.25
2024-05-09T19:40:14.659Z,6.65
2024-05-09T19:42:51.511Z,6.13
2024-05-09T19:45:23.962Z,7.82
2024-05-09T19:48:00.046Z,6.63
2024-05-09T19:50:41.559Z,10.50
2024-05-09T19:53:17.195Z,5.33
2024-05-09T19:55:49.684Z,7.22
2024-05-09T19:58:27.952Z,4.88
2024-05-09T20:01:01.069Z,7.25
2024-05-09T20:03:37.383Z,5.15
2024-05-09T20:06:10.187Z,6.70
2024-05-09T20:08:42.648Z,6.63
2024-05-09T20:11:15.540Z,4.60
2024-05-09T20:13:48.013Z,5.82
2024-05-09T20:16:20.601Z,8.40
2024-05-09T20:18:53.365Z,5.65
2024-05-09T20:21:26.220Z,6.22
2024-05-09T20:23:58.777Z,5.28
2024-05-09T20:26:31.282Z,5.82
2024-05-09T20:29:04.689Z,9.20
2024-05-09T20:31:37.181Z,8.32
2024-05-09T20:34:13.727Z,8.15
2024-05-09T20:36:46.322Z,6.70
2024-05-09T20:41:58.008Z,5.10
2024-05-09T20:44:30.518Z,5.35
2024-05-09T20:47:02.913Z,7.63
2024-05-09T20:49:35.436Z,7.43
2024-05-09T20:52:08.342Z,6.45
2024-05-09T20:54:41.385Z,6.60
2024-05-09T20:57:16.690Z,5.78
2024-05-09T20:59:49.128Z,6.03
2024-05-09T21:02:21.645Z,6.50
2024-05-09T21:04:54.255Z,7.75
2024-05-09T21:07:26.784Z,15.27
2024-05-09T21:09:59.264Z,6.85
2024-05-09T21:12:33.279Z,8.20
2024-05-09T21:15:06.076Z,14.55
2024-05-09T21:17:38.550Z,17.58
2024-05-09T21:20:17.066Z,7.85
2024-05-09T21:22:52.809Z,7.55
2024-05-09T21:25:25.375Z,8.00
2024-05-09T21:27:59.072Z,10.30
2024-05-09T21:30:40.215Z,12.33
2024-05-09T21:33:15.494Z,9.60
2024-05-09T21:35:48.015Z,8.50
2024-05-09T21:38:20.445Z,14.02
2024-05-09T21:40:54.042Z,8.77
2024-05-09T21:43:28.656Z,7.53
2024-05-09T21:48:36.361Z,6.72
2024-05-09T21:51:15.060Z,6.78
2024-05-09T21:53:48.960Z,7.35
2024-05-09T21:56:21.515Z,5.35
2024-05-09T21:58:55.015Z,6.90
2024-05-09T22:01:27.553Z,8.88
2024-05-09T22:04:00.298Z,9.68
2024-05-09T22:06:32.853Z,7.35
2024-05-09T22:09:05.831Z,13.73
2024-05-09T22:11:38.316Z,12.07
2024-05-09T22:14:10.849Z,10.07
2024-05-09T22:16:43.258Z,9.90
2024-05-09T22:19:15.702Z,8.23
2024-05-09T22:21:49.122Z,10.63
2024-05-09T22:24:21.724Z,8.57
2024-05-09T22:26:55.213Z,8.90
2024-05-09T22:29:30.293Z,7.40
2024-05-09T22:32:02.744Z,9.05
2024-05-09T22:34:37.526Z,8.15
2024-05-09T22:37:10.101Z,11.07
2024-05-09T22:39:44.647Z,8.57
2024-05-09T22:42:17.587Z,12.07
2024-05-09T22:44:49.966Z,12.27
2024-05-09T22:47:22.399Z,10.45
2024-05-09T22:49:54.892Z,9.35
2024-05-09T22:52:30.858Z,11.38
2024-05-09T22:55:03.753Z,8.23
2024-05-09T22:57:37.397Z,9.05
2024-05-09T23:00:15.387Z,9.20
2024-05-09T23:02:48.194Z,11.30
2024-05-09T23:05:20.761Z,10.85
2024-05-09T23:07:53.184Z,8.45
2024-05-09T23:10:35.533Z,8.93
2024-05-09T23:13:09.972Z,10.30
2024-05-09T23:15:42.505Z,10.07
2024-05-09T23:18:15.042Z,13.75
2024-05-09T23:20:47.462Z,11.48
2024-05-09T23:23:20.105Z,11.57
2024-05-09T23:25:52.787Z,12.57
2024-05-09T23:28:26.731Z,11.70
2024-05-09T23:30:59.200Z,10.93
2024-05-09T23:33:31.621Z,11.43
2024-05-09T23:36:04.206Z,10.00
2024-05-09T23:38:39.195Z,8.73
2024-05-09T23:41:11.729Z,9.23
2024-05-09T23:43:44.094Z,8.73
2024-05-09T23:46:16.562Z,8.82
2024-05-09T23:48:52.306Z,11.25
2024-05-09T23:51:24.840Z,12.00
2024-05-09T23:53:57.258Z,10.70
2024-05-09T23:56:29.671Z,9.85
2024-05-09T23:59:02.151Z,7.28
